Time;durP1;ratioP1;P1;durP2;ratioP2;P2;SDS_P1;SDS_P2;PMS_P1;PMS_P2;Temp;Humidity;BMP_temperature;BMP_pressure;BME280_temperature;BME280_humidity;BME280_pressure;Samples;Min_cycle;Max_cycle;Signal;HPM_P1;HPM_P2
2022/06/11 00:01:15;;;;;;;4.70;3.67;;;13.90;99.90;;;;;;4999171;28;20042;-87
2022/06/11 00:03:43;;;;;;;3.33;2.95;;;13.90;99.90;;;;;;4997841;28;20125;-87
2022/06/11 00:06:16;;;;;;;6.10;3.63;;;13.90;99.90;;;;;;4985009;28;20038;-88
2022/06/11 00:08:48;;;;;;;5.32;3.60;;;13.80;99.90;;;;;;5000816;28;20040;-88
2022/06/11 00:11:22;;;;;;;3.60;3.30;;;13.80;99.90;;;;;;5000818;28;20042;-87
2022/06/11 00:13:54;;;;;;;4.40;4.00;;;13.70;99.90;;;;;;4997110;28;20074;-87
2022/06/11 00:16:25;;;;;;;3.30;3.00;;;13.70;99.90;;;;;;4999147;28;20066;-87
2022/06/11 00:18:59;;;;;;;3.63;3.05;;;13.70;99.90;;;;;;4999977;28;20052;-87
2022/06/11 00:21:30;;;;;;;6.43;3.90;;;13.60;99.90;;;;;;5001301;28;20058;-87
2022/06/11 00:23:57;;;;;;;3.90;3.05;;;13.50;99.90;;;;;;5000626;28;20042;-87
2022/06/11 00:26:24;;;;;;;5.40;3.80;;;13.60;99.90;;;;;;4998088;28;20045;-87
2022/06/11 00:28:57;;;;;;;3.75;3.25;;;13.60;99.90;;;;;;4984748;28;20038;-85
2022/06/11 00:31:24;;;;;;;4.25;3.85;;;13.50;99.90;;;;;;5002516;28;20052;-85
2022/06/11 00:33:51;;;;;;;5.10;3.45;;;13.50;99.90;;;;;;4998571;28;20100;-84
2022/06/11 00:36:18;;;;;;;5.80;3.88;;;13.50;99.90;;;;;;4999040;28;20066;-85
2022/06/11 00:38:50;;;;;;;3.90;3.50;;;13.50;99.90;;;;;;5017980;28;20066;-85
2022/06/11 00:41:20;;;;;;;4.60;3.20;;;13.50;99.90;;;;;;5002599;28;20050;-85
2022/06/11 00:43:53;;;;;;;4.30;3.28;;;13.40;99.90;;;;;;4998982;28;20046;-85
2022/06/11 00:46:52;;;;;;;5.10;3.03;;;13.30;99.90;;;;;;4995366;28;20070;-85
2022/06/11 00:49:43;;;;;;;4.00;3.28;;;13.30;99.90;;;;;;4999122;28;20045;-85
2022/06/11 00:52:16;;;;;;;3.30;3.00;;;13.20;99.90;;;;;;5013019;28;20141;-84
2022/06/11 00:54:47;;;;;;;5.32;3.30;;;13.20;99.90;;;;;;4992660;28;20069;-86
2022/06/11 00:57:15;;;;;;;6.88;3.53;;;13.10;99.90;;;;;;5003115;28;20066;-85
2022/06/11 00:59:48;;;;;;;6.35;3.75;;;13.10;99.90;;;;;;5002483;28;20082;-85
2022/06/11 01:02:15;;;;;;;5.55;3.50;;;13.00;99.90;;;;;;5020117;28;20050;-85
2022/06/11 01:04:53;;;;;;;4.43;3.75;;;13.00;99.90;;;;;;5001698;28;20060;-85
2022/06/11 01:07:59;;;;;;;5.53;3.72;;;13.00;99.90;;;;;;4991909;28;20556;-85
2022/06/11 01:11:02;;;;;;;6.55;3.90;;;12.90;99.90;;;;;;5001819;28;20422;-85
2022/06/11 01:13:42;;;;;;;5.95;3.65;;;12.90;99.90;;;;;;4990115;28;20044;-86
2022/06/11 01:16:14;;;;;;;3.90;3.47;;;12.90;99.90;;;;;;4996995;28;20073;-85
2022/06/11 01:19:15;;;;;;;6.85;3.10;;;12.80;99.90;;;;;;4990689;28;20477;-85
2022/06/11 01:22:19;;;;;;;6.82;3.42;;;12.80;99.90;;;;;;5003252;28;20098;-85
2022/06/11 01:25:30;;;;;;;4.45;3.58;;;12.80;99.90;;;;;;4991280;28;20052;-84
2022/06/11 01:28:11;;;;;;;6.65;4.10;;;12.80;99.90;;;;;;4983038;28;20053;-85
2022/06/11 01:30:46;;;;;;;3.58;3.28;;;12.80;99.90;;;;;;5021623;28;20044;-86
2022/06/11 01:33:29;;;;;;;4.43;3.53;;;12.80;99.90;;;;;;5006072;28;20046;-85
2022/06/11 01:36:31;;;;;;;4.10;3.47;;;12.70;99.90;;;;;;5004234;28;20034;-85
2022/06/11 01:39:14;;;;;;;4.35;3.60;;;12.60;99.90;;;;;;5021206;28;20042;-85
2022/06/11 01:41:53;;;;;;;3.40;3.10;;;12.60;99.90;;;;;;5005785;28;20644;-85
2022/06/11 01:44:28;;;;;;;3.42;3.13;;;12.60;99.90;;;;;;5002262;28;20100;-85
2022/06/11 01:46:57;;;;;;;5.32;4.13;;;12.60;99.90;;;;;;5005882;28;20041;-85
2022/06/11 01:49:23;;;;;;;5.07;3.63;;;12.70;99.90;;;;;;5003303;28;20052;-85
2022/06/11 01:52:11;;;;;;;3.88;3.38;;;12.70;99.90;;;;;;5004945;28;20062;-85
2022/06/11 01:55:00;;;;;;;4.43;3.38;;;12.70;99.90;;;;;;4988228;28;20150;-86
2022/06/11 01:57:45;;;;;;;5.00;4.05;;;12.60;99.90;;;;;;5014591;28;20050;-85
2022/06/11 02:00:24;;;;;;;4.57;3.65;;;12.60;99.90;;;;;;4994563;28;20069;-85
2022/06/11 02:03:21;;;;;;;4.53;3.30;;;12.60;99.90;;;;;;5005980;28;20053;-85
2022/06/11 02:06:28;;;;;;;5.05;3.70;;;12.60;99.90;;;;;;5021901;28;20038;-85
2022/06/11 02:09:00;;;;;;;4.22;3.55;;;12.50;99.90;;;;;;4995582;28;20046;-85
2022/06/11 02:11:47;;;;;;;6.13;3.67;;;12.50;99.90;;;;;;4990665;28;20042;-86
2022/06/11 02:14:26;;;;;;;5.65;4.03;;;12.50;99.90;;;;;;5003921;28;20473;-85
2022/06/11 02:16:57;;;;;;;4.40;3.30;;;12.50;99.90;;;;;;5010592;28;20118;-85
2022/06/11 02:19:30;;;;;;;5.70;3.13;;;12.50;99.90;;;;;;5005714;28;20145;-85
2022/06/11 02:22:01;;;;;;;5.95;3.58;;;12.40;99.90;;;;;;5005977;28;20053;-85
2022/06/11 02:24:53;;;;;;;4.55;3.65;;;12.30;99.90;;;;;;5004290;28;20069;-85
2022/06/11 02:27:24;;;;;;;5.50;3.45;;;12.30;99.90;;;;;;5005073;28;20495;-85
2022/06/11 02:29:53;;;;;;;3.90;3.50;;;12.30;99.90;;;;;;5022162;28;20073;-85
2022/06/11 02:32:23;;;;;;;5.18;3.30;;;12.20;99.90;;;;;;5002036;28;20065;-85
2022/06/11 02:35:02;;;;;;;3.60;3.30;;;12.30;99.90;;;;;;4983503;28;20072;-85
2022/06/11 02:37:40;;;;;;;4.55;3.50;;;12.30;99.90;;;;;;4990844;28;20148;-85
2022/06/11 02:40:19;;;;;;;4.30;3.47;;;12.20;99.90;;;;;;5005219;28;20046;-85
2022/06/11 02:42:46;;;;;;;5.10;3.65;;;12.20;99.90;;;;;;5019220;28;20571;-84
2022/06/11 02:45:15;;;;;;;4.32;3.85;;;12.10;99.90;;;;;;5005059;28;20145;-85
2022/06/11 02:47:43;;;;;;;5.85;3.28;;;12.10;99.90;;;;;;5005178;28;20046;-85
2022/06/11 02:50:21;;;;;;;4.97;3.30;;;12.10;99.90;;;;;;5005851;28;20056;-85
2022/06/11 02:52:48;;;;;;;7.88;3.88;;;12.00;99.90;;;;;;5005138;28;20461;-83
2022/06/11 02:55:15;;;;;;;5.35;4.03;;;11.90;99.90;;;;;;5003686;28;20129;-85
2022/06/11 02:57:41;;;;;;;4.10;3.70;;;11.90;99.90;;;;;;5005680;28;20052;-85
2022/06/11 03:00:10;;;;;;;6.15;3.40;;;11.90;99.90;;;;;;5004446;28;20148;-85
2022/06/11 03:02:45;;;;;;;3.70;3.22;;;11.90;99.90;;;;;;5018792;28;20050;-85
2022/06/11 03:05:20;;;;;;;6.80;3.88;;;11.90;99.90;;;;;;5004810;28;20082;-85
2022/06/11 03:07:52;;;;;;;6.25;3.80;;;11.90;99.90;;;;;;5000858;28;20048;-85
2022/06/11 03:10:21;;;;;;;3.88;3.42;;;11.90;99.90;;;;;;5001095;28;20046;-86
2022/06/11 03:12:54;;;;;;;4.35;3.28;;;11.80;99.90;;;;;;4986257;28;20068;-84
2022/06/11 03:15:23;;;;;;;6.07;4.03;;;11.80;99.90;;;;;;5004073;28;20125;-85
2022/06/11 03:17:55;;;;;;;;;;;11.80;99.90;;;;;;5021707;28;20044;-85
2022/06/11 03:20:26;;;;;;;4.28;3.55;;;11.80;99.90;;;;;;5005283;28;19928;-85
2022/06/11 03:22:53;;;;;;;4.97;3.60;;;11.80;99.90;;;;;;5003831;28;20117;-85
2022/06/11 03:25:20;;;;;;;3.90;3.00;;;11.80;99.90;;;;;;4987746;28;20499;-85
2022/06/11 03:27:49;;;;;;;4.55;3.70;;;11.80;99.90;;;;;;5004638;28;20046;-85
2022/06/11 03:30:21;;;;;;;7.47;3.17;;;11.80;99.90;;;;;;5003703;28;20046;-85
2022/06/11 03:32:53;;;;;;;4.63;3.58;;;11.70;99.90;;;;;;5005568;28;20041;-85
2022/06/11 03:35:20;;;;;;;5.13;3.53;;;11.70;99.90;;;;;;5003621;28;20040;-85
2022/06/11 03:37:47;;;;;;;4.90;3.50;;;11.70;99.90;;;;;;5005140;28;20050;-85
2022/06/11 03:40:14;;;;;;;4.53;3.47;;;11.70;99.90;;;;;;4989787;28;20049;-85
2022/06/11 03:42:41;;;;;;;5.63;3.75;;;11.70;99.90;;;;;;5021548;28;20041;-85
2022/06/11 03:45:10;;;;;;;3.70;3.08;;;11.70;99.90;;;;;;5003963;28;20153;-85
2022/06/11 03:47:43;;;;;;;4.90;3.70;;;11.70;99.90;;;;;;5005337;28;20060;-86
2022/06/11 03:50:17;;;;;;;3.90;3.47;;;11.70;99.90;;;;;;5005134;28;20060;-87
2022/06/11 03:52:44;;;;;;;5.30;3.47;;;11.70;99.90;;;;;;4992305;28;20053;-85
2022/06/11 03:55:11;;;;;;;4.28;3.33;;;11.70;99.90;;;;;;5003300;28;20566;-85
2022/06/11 03:57:38;;;;;;;4.03;3.28;;;11.70;99.90;;;;;;5004907;28;20116;-85
2022/06/11 04:00:09;;;;;;;4.20;3.67;;;11.70;99.90;;;;;;5004434;28;20062;-85
2022/06/11 04:02:36;;;;;;;4.18;3.38;;;11.70;99.90;;;;;;5005036;28;20108;-85
2022/06/11 04:05:08;;;;;;;5.55;3.30;;;11.70;99.90;;;;;;5018441;28;20045;-85
2022/06/11 04:07:40;;;;;;;4.82;3.50;;;11.70;99.90;;;;;;5015744;28;20060;-85
2022/06/11 04:10:12;;;;;;;5.95;3.97;;;11.70;99.90;;;;;;5020895;28;20052;-85
2022/06/11 04:12:44;;;;;;;4.90;3.88;;;11.70;99.90;;;;;;4987041;28;20049;-85
2022/06/11 04:15:11;;;;;;;3.95;3.40;;;11.70;99.90;;;;;;5002207;28;20037;-86
2022/06/11 04:17:42;;;;;;;5.30;3.40;;;11.70;99.90;;;;;;4989484;28;20588;-85
2022/06/11 04:20:15;;;;;;;3.63;3.33;;;11.70;99.90;;;;;;5004480;28;20053;-85
2022/06/11 04:22:47;;;;;;;3.67;3.30;;;11.80;99.90;;;;;;5003054;28;20056;-83
2022/06/11 04:25:16;;;;;;;4.30;3.55;;;11.80;99.90;;;;;;4999770;28;20103;-85
2022/06/11 04:27:43;;;;;;;4.78;3.35;;;11.80;99.90;;;;;;5004541;28;20042;-85
2022/06/11 04:30:14;;;;;;;3.70;3.15;;;11.90;99.90;;;;;;5021516;28;20093;-86
2022/06/11 04:32:41;;;;;;;5.18;3.60;;;11.90;99.90;;;;;;5002037;28;20456;-85
2022/06/11 04:35:12;;;;;;;3.83;3.40;;;11.90;99.90;;;;;;5002657;28;20045;-85
2022/06/11 04:37:39;;;;;;;3.85;3.40;;;12.00;99.90;;;;;;5004040;28;20054;-85
2022/06/11 04:40:15;;;;;;;5.25;3.33;;;12.00;99.90;;;;;;5021715;28;20046;-85
2022/06/11 04:42:47;;;;;;;3.80;3.40;;;12.10;99.90;;;;;;5004010;28;20213;-82
2022/06/11 04:45:15;;;;;;;8.20;5.10;;;12.10;99.90;;;;;;5003455;28;20140;-85
2022/06/11 04:47:42;;;;;;;12.60;6.10;;;12.10;99.90;;;;;;4999963;28;20092;-85
2022/06/11 04:50:11;;;;;;;8.88;5.50;;;12.20;99.90;;;;;;5003954;28;20053;-85
2022/06/11 04:52:43;;;;;;;14.73;6.55;;;12.20;99.90;;;;;;5002184;28;20042;-85
2022/06/11 04:55:10;;;;;;;9.60;5.38;;;12.20;99.90;;;;;;5003426;28;20046;-85
2022/06/11 04:57:37;;;;;;;9.15;5.35;;;12.30;99.90;;;;;;5004788;28;20065;-85
2022/06/11 05:00:06;;;;;;;8.32;4.95;;;12.40;99.90;;;;;;4988272;28;20140;-86
2022/06/11 05:02:32;;;;;;;12.52;6.45;;;12.30;99.90;;;;;;4986730;28;20100;-86
2022/06/11 05:05:06;;;;;;;11.75;5.70;;;12.40;99.90;;;;;;4999108;28;20046;-85
2022/06/11 05:07:38;;;;;;;11.10;5.07;;;12.40;99.90;;;;;;5006785;28;20076;-85
2022/06/11 05:10:06;;;;;;;7.25;4.25;;;12.50;99.90;;;;;;4994647;28;20165;-85
2022/06/11 05:12:38;;;;;;;7.20;4.70;;;12.50;99.90;;;;;;5007750;28;20046;-85
2022/06/11 05:15:06;;;;;;;10.73;5.45;;;12.50;99.90;;;;;;5005633;28;20069;-85
2022/06/11 05:17:33;;;;;;;15.07;7.30;;;12.50;99.90;;;;;;5007552;28;20112;-85
2022/06/11 05:20:00;;;;;;;11.27;5.95;;;12.50;99.90;;;;;;5007662;28;20092;-86
2022/06/11 05:22:27;;;;;;;12.18;5.88;;;12.50;99.90;;;;;;5007478;28;20209;-85
2022/06/11 05:24:59;;;;;;;8.05;5.65;;;12.50;99.90;;;;;;5006345;28;20042;-85
2022/06/11 05:27:31;;;;;;;6.38;4.85;;;12.60;99.90;;;;;;5007519;28;20033;-85
2022/06/11 05:30:21;;;;;;;8.48;4.75;;;12.60;99.90;;;;;;5006930;28;20052;-86
2022/06/11 05:32:53;;;;;;;9.40;5.20;;;12.60;99.90;;;;;;5016942;28;20070;-85
2022/06/11 05:35:24;;;;;;;10.98;5.82;;;12.70;99.90;;;;;;5002870;28;20537;-85
2022/06/11 05:37:53;;;;;;;9.68;5.65;;;12.80;99.90;;;;;;5003696;28;20070;-86
2022/06/11 05:40:23;;;;;;;6.50;5.15;;;12.80;99.90;;;;;;5001799;28;20046;-85
2022/06/11 05:42:49;;;;;;;9.50;5.68;;;12.90;99.90;;;;;;5005226;28;20125;-85
2022/06/11 05:45:18;;;;;;;5.18;4.57;;;13.00;99.90;;;;;;5005757;28;20049;-86
2022/06/11 05:47:47;;;;;;;5.70;4.63;;;13.10;99.90;;;;;;5007106;28;20481;-85
2022/06/11 05:50:26;;;;;;;7.63;5.22;;;13.20;99.90;;;;;;5006761;28;20142;-86
2022/06/11 05:52:55;;;;;;;5.40;4.72;;;13.20;99.90;;;;;;4998451;28;20148;-85
2022/06/11 05:55:26;;;;;;;11.32;5.30;;;13.30;99.90;;;;;;5005054;28;20405;-85
2022/06/11 05:57:55;;;;;;;5.88;4.53;;;13.40;99.90;;;;;;5007092;28;20042;-85
2022/06/11 06:00:23;;;;;;;6.45;4.60;;;13.40;99.90;;;;;;5006619;28;20065;-85
2022/06/11 06:02:56;;;;;;;6.40;4.85;;;13.50;99.90;;;;;;5022803;28;20056;-86
2022/06/11 06:05:30;;;;;;;7.55;5.45;;;13.60;99.90;;;;;;4997984;28;20527;-85
2022/06/11 06:07:57;;;;;;;8.85;5.95;;;13.70;99.90;;;;;;4997578;28;20157;-85
2022/06/11 06:10:29;;;;;;;9.38;5.72;;;13.80;99.90;;;;;;4974841;28;20048;-86
2022/06/11 06:12:56;;;;;;;7.78;5.13;;;13.90;99.90;;;;;;4994039;28;20113;-85
2022/06/11 06:15:25;;;;;;;9.15;5.50;;;13.90;99.90;;;;;;5003766;28;20046;-85
2022/06/11 06:17:57;;;;;;;6.85;6.15;;;14.00;99.90;;;;;;5005365;28;20523;-85
2022/06/11 06:20:29;;;;;;;7.68;6.25;;;14.10;99.90;;;;;;5005143;28;20054;-85
2022/06/11 06:23:00;;;;;;;9.07;6.53;;;14.20;99.90;;;;;;5003939;28;20487;-85
2022/06/11 06:25:32;;;;;;;6.75;6.05;;;14.20;99.90;;;;;;4988804;28;20049;-85
2022/06/11 06:28:05;;;;;;;9.27;7.13;;;14.30;99.90;;;;;;5004704;28;20113;-86
2022/06/11 06:30:32;;;;;;;8.52;6.63;;;14.50;99.90;;;;;;5020812;28;20041;-84
2022/06/11 06:32:59;;;;;;;8.93;7.25;;;14.50;99.90;;;;;;4991742;28;20084;-86
2022/06/11 06:35:26;;;;;;;8.57;6.85;;;14.60;99.90;;;;;;5003102;28;20070;-85
2022/06/11 06:37:53;;;;;;;10.88;6.63;;;14.70;99.90;;;;;;5003868;28;20037;-85
2022/06/11 06:40:19;;;;;;;7.35;6.63;;;14.80;99.90;;;;;;4997733;28;20046;-86
2022/06/11 06:42:46;;;;;;;6.70;5.97;;;14.90;99.90;;;;;;5003692;28;20527;-84
2022/06/11 06:45:15;;;;;;;7.60;6.57;;;15.00;99.90;;;;;;5003818;28;20145;-85
2022/06/11 06:47:47;;;;;;;9.20;6.63;;;15.10;99.90;;;;;;5004102;28;20037;-85
2022/06/11 06:50:14;;;;;;;6.97;6.25;;;15.30;99.90;;;;;;5004352;28;20097;-85
2022/06/11 06:52:46;;;;;;;8.90;5.88;;;15.40;99.90;;;;;;5003273;28;20042;-84
2022/06/11 06:55:18;;;;;;;7.05;6.35;;;15.50;99.90;;;;;;5003358;28;20145;-85
2022/06/11 06:57:45;;;;;;;7.70;6.90;;;15.60;99.90;;;;;;5002318;28;20045;-85
2022/06/11 07:00:12;;;;;;;6.68;5.78;;;15.70;99.90;;;;;;5003875;28;20077;-85
2022/06/11 07:02:39;;;;;;;8.15;6.25;;;15.80;99.90;;;;;;5020322;28;20121;-85
2022/06/11 07:05:06;;;;;;;7.65;6.57;;;15.90;99.90;;;;;;5001885;28;20094;-84
2022/06/11 07:07:39;;;;;;;6.85;6.10;;;16.00;99.90;;;;;;5020793;28;20108;-85
2022/06/11 07:10:11;;;;;;;8.17;6.50;;;16.20;99.90;;;;;;5003744;28;20046;-85
2022/06/11 07:12:37;;;;;;;6.82;6.05;;;16.40;99.90;;;;;;4999707;28;20056;-85
2022/06/11 07:15:06;;;;;;;6.88;6.18;;;16.50;99.90;;;;;;5017768;28;20038;-85
2022/06/11 07:17:41;;;;;;;7.15;6.13;;;16.60;99.90;;;;;;5002293;28;20077;-85
2022/06/11 07:20:25;;;;;;;7.10;5.90;;;16.60;99.90;;;;;;4999826;28;20056;-84
2022/06/11 07:23:16;;;;;;;8.20;6.32;;;16.80;99.90;;;;;;5000921;28;20076;-84
2022/06/11 07:25:51;;;;;;;6.65;5.47;;;16.90;99.90;;;;;;5017704;28;20045;-85
2022/06/11 07:28:30;;;;;;;8.32;5.90;;;17.10;99.90;;;;;;4999179;28;20065;-85
2022/06/11 07:31:02;;;;;;;7.53;5.80;;;17.20;99.90;;;;;;5001464;28;20056;-86
2022/06/11 07:33:28;;;;;;;6.55;5.82;;;17.30;99.90;;;;;;5001201;28;20378;-87
2022/06/11 07:36:02;;;;;;;6.43;5.45;;;17.40;99.90;;;;;;4999698;28;20042;-86
2022/06/11 07:38:29;;;;;;;7.57;5.22;;;17.50;99.90;;;;;;5015401;28;20044;-86
2022/06/11 07:40:56;;;;;;;8.35;5.78;;;17.60;99.90;;;;;;4977517;28;20141;-85
2022/06/11 07:43:28;;;;;;;6.45;5.30;;;17.70;99.90;;;;;;4990815;28;20073;-85
2022/06/11 07:45:55;;;;;;;7.82;5.47;;;17.80;99.90;;;;;;4977654;28;20042;-86
2022/06/11 07:48:21;;;;;;;6.65;4.75;;;18.00;99.90;;;;;;4979655;28;20140;-85
2022/06/11 07:50:50;;;;;;;5.72;4.72;;;18.10;99.90;;;;;;4996013;28;20053;-86
2022/06/11 07:53:19;;;;;;;6.90;4.63;;;18.20;99.90;;;;;;4998482;28;20096;-85
2022/06/11 07:55:53;;;;;;;10.05;4.95;;;18.30;99.90;;;;;;4996734;28;20156;-85
2022/06/11 07:58:30;;;;;;;9.38;5.10;;;18.40;99.90;;;;;;4995920;28;20056;-86
2022/06/11 08:01:02;;;;;;;7.22;5.07;;;18.50;99.90;;;;;;5014690;28;20041;-86
2022/06/11 08:03:31;;;;;;;7.55;5.10;;;18.60;99.90;;;;;;4999197;28;20052;-86
2022/06/11 08:05:59;;;;;;;5.72;4.93;;;18.80;99.90;;;;;;4981325;28;20122;-86
2022/06/11 08:08:27;;;;;;;4.57;4.10;;;18.90;99.90;;;;;;5016813;28;20050;-86
2022/06/11 08:11:00;;;;;;;5.68;4.43;;;19.00;99.90;;;;;;5001428;28;20048;-85
2022/06/11 08:13:32;;;;;;;7.07;4.90;;;19.10;99.90;;;;;;4997364;28;20050;-85
2022/06/11 08:16:04;;;;;;;6.05;5.18;;;19.20;99.90;;;;;;4994594;28;20041;-86
2022/06/11 08:18:32;;;;;;;5.15;4.47;;;19.30;99.90;;;;;;4992655;28;20053;-85
2022/06/11 08:21:04;;;;;;;7.40;5.73;;;19.40;99.90;;;;;;4999403;28;20041;-86
2022/06/11 08:23:36;;;;;;;6.10;5.13;;;19.60;99.90;;;;;;4998735;28;20042;-85
2022/06/11 08:26:08;;;;;;;5.57;5.05;;;19.70;99.90;;;;;;5016394;28;20098;-86
2022/06/11 08:28:35;;;;;;;6.18;4.85;;;19.80;99.90;;;;;;5000514;28;20041;-86
2022/06/11 08:31:04;;;;;;;6.30;4.20;;;19.90;99.90;;;;;;4999086;28;20072;-86
2022/06/11 08:33:36;;;;;;;5.03;4.00;;;20.00;99.90;;;;;;4995221;28;20050;-86
2022/06/11 08:36:09;;;;;;;6.65;4.65;;;20.10;99.90;;;;;;4998085;28;20092;-85
2022/06/11 08:38:35;;;;;;;5.75;4.00;;;20.20;99.90;;;;;;5000781;28;20133;-85
2022/06/11 08:41:02;;;;;;;5.97;3.67;;;20.30;99.90;;;;;;5003010;28;20500;-86
2022/06/11 08:43:40;;;;;;;4.65;3.88;;;20.50;99.90;;;;;;5002717;28;20068;-86
2022/06/11 08:46:07;;;;;;;4.57;4.18;;;20.60;99.90;;;;;;5001978;28;20137;-86
2022/06/11 08:48:42;;;;;;;4.55;3.72;;;20.70;99.90;;;;;;5003829;28;20056;-86
2022/06/11 08:51:44;;;;;;;4.45;4.05;;;20.80;99.90;;;;;;4988998;28;20045;-84
2022/06/11 08:54:20;;;;;;;4.82;3.95;;;20.90;99.90;;;;;;5001548;28;20061;-86
2022/06/11 08:57:19;;;;;;;5.00;4.07;;;21.00;99.90;;;;;;5003887;28;20096;-86
2022/06/11 09:00:14;;;;;;;3.95;3.25;;;21.10;99.90;;;;;;5019170;28;20073;-85
2022/06/11 09:03:12;;;;;;;4.93;3.30;;;21.20;99.90;;;;;;4981274;28;20050;-84
2022/06/11 09:06:11;;;;;;;4.15;3.40;;;21.30;99.90;;;;;;4999801;28;20048;-85
2022/06/11 09:08:57;;;;;;;;;;;21.30;99.90;;;;;;5002249;28;20089;-86
2022/06/11 09:12:02;;;;;;;4.65;3.55;;;21.30;99.90;;;;;;5002352;28;20020;-85
2022/06/11 09:14:44;;;;;;;4.80;3.60;;;21.30;99.90;;;;;;5017985;28;20044;-85
2022/06/11 09:17:34;;;;;;;3.20;2.85;;;21.50;99.90;;;;;;5003602;28;20410;-85
2022/06/11 09:20:27;;;;;;;3.05;2.75;;;21.60;99.90;;;;;;5003698;28;20042;-86
2022/06/11 09:22:59;;;;;;;5.30;3.40;;;21.70;99.90;;;;;;5002421;28;20053;-85
2022/06/11 09:25:58;;;;;;;3.60;3.15;;;21.80;99.90;;;;;;5004881;28;20052;-85
2022/06/11 09:28:52;;;;;;;5.80;3.40;;;22.00;99.90;;;;;;5009680;28;20525;-85
2022/06/11 09:31:37;;;;;;;6.82;3.63;;;22.00;99.90;;;;;;5018283;28;20042;-85
2022/06/11 09:34:19;;;;;;;5.68;3.97;;;21.90;99.90;;;;;;5000215;28;22247;-86
2022/06/11 09:37:02;;;;;;;5.03;3.42;;;21.70;99.90;;;;;;5003648;28;20038;-85
2022/06/11 09:39:37;;;;;;;3.28;2.95;;;21.50;99.90;;;;;;5019931;28;20100;-85
2022/06/11 09:42:35;;;;;;;4.20;2.97;;;21.40;99.90;;;;;;5003256;28;20057;-86
2022/06/11 09:45:19;;;;;;;6.43;3.03;;;21.20;99.90;;;;;;4998490;28;20057;-85
2022/06/11 09:48:03;;;;;;;4.68;2.85;;;21.20;99.90;;;;;;4996468;28;20053;-85
2022/06/11 09:50:42;;;;;;;5.05;3.25;;;21.20;99.90;;;;;;5000304;28;20034;-85
2022/06/11 09:53:35;;;;;;;4.40;2.78;;;21.20;99.90;;;;;;5002579;28;20052;-84
2022/06/11 09:56:22;;;;;;;5.13;3.90;;;21.20;99.90;;;;;;4997655;28;20100;-84
2022/06/11 09:59:18;;;;;;;5.78;3.63;;;21.10;99.90;;;;;;4981254;28;20046;-85
2022/06/11 10:01:51;;;;;;;5.47;3.08;;;21.10;99.90;;;;;;4992459;28;20081;-85
2022/06/11 10:04:29;;;;;;;4.93;3.50;;;21.00;99.90;;;;;;5000807;28;20040;-86
2022/06/11 10:07:05;;;;;;;;;;;21.00;99.90;;;;;;5003311;28;20060;-85
2022/06/11 10:09:39;;;;;;;4.75;3.03;;;20.90;99.90;;;;;;5003952;28;20435;-85
2022/06/11 10:12:23;;;;;;;4.28;3.40;;;21.00;99.90;;;;;;5003040;28;20065;-86
2022/06/11 10:14:55;;;;;;;5.78;3.10;;;21.10;99.90;;;;;;5002382;28;20139;-85
2022/06/11 10:17:30;;;;;;;4.13;3.00;;;21.10;99.90;;;;;;4999097;28;20061;-86
2022/06/11 10:20:21;;;;;;;3.00;2.70;;;21.10;99.90;;;;;;4978498;28;20199;-86
2022/06/11 10:23:00;;;;;;;4.43;3.40;;;21.10;99.90;;;;;;5015224;28;20096;-85
2022/06/11 10:25:56;;;;;;;6.50;3.03;;;21.10;99.90;;;;;;5000662;28;20053;-85
2022/06/11 10:28:32;;;;;;;5.30;3.17;;;21.10;99.90;;;;;;5000621;28;20109;-84
2022/06/11 10:31:05;;;;;;;3.05;2.70;;;21.10;99.90;;;;;;5020080;28;20070;-85
2022/06/11 10:33:39;;;;;;;4.57;2.72;;;21.20;99.90;;;;;;4985575;28;20046;-85
2022/06/11 10:36:32;;;;;;;2.97;2.70;;;21.20;99.90;;;;;;4999274;28;20144;-86
2022/06/11 10:39:19;;;;;;;3.25;2.20;;;21.20;99.90;;;;;;5014772;28;20041;-86
2022/06/11 10:42:06;;;;;;;3.17;2.42;;;21.20;99.90;;;;;;5002846;28;20171;-85
2022/06/11 10:45:00;;;;;;;4.10;2.50;;;21.20;99.90;;;;;;4997400;28;20487;-85
2022/06/11 10:47:35;;;;;;;2.60;2.10;;;21.30;99.90;;;;;;5016029;28;20148;-85
2022/06/11 10:50:02;;;;;;;3.38;2.42;;;21.50;99.90;;;;;;4998821;28;20540;-85
2022/06/11 10:52:41;;;;;;;4.57;2.30;;;21.80;99.90;;;;;;4998298;28;20062;-85
2022/06/11 10:55:21;;;;;;;2.55;2.13;;;22.20;99.90;;;;;;4977998;28;20523;-84
2022/06/11 10:57:51;;;;;;;2.50;1.83;;;22.50;99.90;;;;;;4996760;28;20517;-85
2022/06/11 11:00:20;;;;;;;3.72;2.55;;;22.80;99.90;;;;;;5000458;28;20049;-85
2022/06/11 11:02:53;;;;;;;2.97;2.05;;;23.00;99.90;;;;;;4998920;28;20046;-82
2022/06/11 11:05:42;;;;;;;9.35;2.10;;;23.30;99.90;;;;;;4983799;28;20034;-85
2022/06/11 11:08:14;;;;;;;2.50;1.95;;;23.60;99.00;;;;;;4997546;28;20069;-85
2022/06/11 11:10:49;;;;;;;2.40;2.10;;;23.80;99.90;;;;;;4968583;28;20047;-85
2022/06/11 11:13:28;;;;;;;2.67;2.00;;;24.10;97.70;;;;;;5001881;28;20073;-85
2022/06/11 11:16:25;;;;;;;2.15;1.90;;;24.20;95.70;;;;;;5021638;28;20038;-86
2022/06/11 11:19:03;;;;;;;2.33;2.10;;;24.30;94.90;;;;;;4985280;28;20092;-86
2022/06/11 11:21:56;;;;;;;4.25;2.10;;;24.40;94.70;;;;;;5001495;28;20060;-86
2022/06/11 11:24:43;;;;;;;3.30;2.40;;;24.60;95.60;;;;;;4983406;28;20132;-86
2022/06/11 11:27:23;;;;;;;2.67;1.98;;;24.90;97.00;;;;;;4992696;28;20048;-86
2022/06/11 11:30:10;;;;;;;2.70;2.03;;;25.00;94.50;;;;;;4999435;28;20060;-86
2022/06/11 11:32:44;;;;;;;1.95;1.80;;;24.90;92.90;;;;;;4999225;28;20046;-86
2022/06/11 11:35:22;;;;;;;3.42;2.40;;;24.60;93.50;;;;;;5001377;28;20040;-84
2022/06/11 11:38:16;;;;;;;5.75;2.30;;;24.30;94.80;;;;;;4984914;28;20038;-86
2022/06/11 11:41:00;;;;;;;2.40;1.85;;;24.00;94.00;;;;;;4982419;28;20046;-86
2022/06/11 11:43:40;;;;;;;3.25;1.90;;;23.90;95.70;;;;;;5001342;28;20053;-86
2022/06/11 11:46:12;;;;;;;2.30;2.10;;;23.70;97.00;;;;;;4999886;28;20046;-85
2022/06/11 11:48:48;;;;;;;2.30;1.85;;;23.70;96.70;;;;;;5001597;28;20501;-86
2022/06/11 11:51:40;;;;;;;5.30;2.08;;;23.70;97.00;;;;;;5001537;28;20038;-86
2022/06/11 11:54:17;;;;;;;3.63;2.00;;;23.50;96.70;;;;;;5001680;28;20056;-86
2022/06/11 11:56:46;;;;;;;3.50;2.05;;;23.50;94.50;;;;;;5002012;28;20108;-85
2022/06/11 11:59:19;;;;;;;2.50;1.80;;;23.40;95.70;;;;;;5001758;28;20042;-85
2022/06/11 12:01:55;;;;;;;3.00;2.03;;;23.40;94.90;;;;;;4998118;28;20056;-86
2022/06/11 12:04:35;;;;;;;3.30;2.97;;;23.50;94.60;;;;;;4983112;28;20148;-86
2022/06/11 12:07:13;;;;;;;2.50;2.13;;;23.50;94.60;;;;;;4998635;28;20473;-85
2022/06/11 12:09:55;;;;;;;3.40;1.80;;;23.50;94.10;;;;;;4998480;28;20046;-86
2022/06/11 12:12:35;;;;;;;4.20;2.00;;;23.50;94.30;;;;;;4983908;28;20383;-85
2022/06/11 12:15:15;;;;;;;5.50;2.25;;;23.50;93.70;;;;;;4980116;28;20109;-85
2022/06/11 12:18:02;;;;;;;2.72;1.90;;;23.60;93.00;;;;;;4997251;28;20056;-86
2022/06/11 12:20:40;;;;;;;4.88;1.70;;;23.90;90.70;;;;;;4999284;28;20060;-86
2022/06/11 12:23:41;;;;;;;1.63;1.52;;;24.30;91.10;;;;;;4996886;28;20046;-86
2022/06/11 12:26:24;;;;;;;2.00;1.80;;;24.50;89.00;;;;;;4984424;28;20064;-86
2022/06/11 12:29:05;;;;;;;2.25;1.85;;;24.90;88.90;;;;;;4999632;28;20042;-86
2022/06/11 12:31:33;;;;;;;2.90;2.22;;;25.10;89.60;;;;;;5005489;28;20489;-86
2022/06/11 12:34:02;;;;;;;2.47;2.28;;;25.30;88.70;;;;;;4988267;28;20173;-86
2022/06/11 12:36:48;;;;;;;1.75;1.65;;;25.60;91.80;;;;;;5009509;28;20406;-86
2022/06/11 12:39:37;;;;;;;3.22;2.28;;;25.70;89.50;;;;;;4995928;28;20490;-85
2022/06/11 12:42:31;;;;;;;1.90;1.80;;;25.80;86.70;;;;;;4996586;28;20054;-85
2022/06/11 12:45:03;;;;;;;2.08;1.73;;;25.80;86.00;;;;;;5011231;28;20136;-86
2022/06/11 12:48:13;;;;;;;2.33;1.70;;;26.00;84.50;;;;;;4996916;28;20077;-85
2022/06/11 12:51:22;;;;;;;2.95;1.92;;;25.60;82.20;;;;;;4982041;28;20045;-85
2022/06/11 12:53:59;;;;;;;2.13;1.75;;;25.30;84.50;;;;;;5010770;28;20085;-86
2022/06/11 12:56:49;;;;;;;2.03;1.73;;;25.10;85.60;;;;;;4974525;28;20045;-86
2022/06/11 12:59:41;;;;;;;2.20;2.00;;;25.10;84.90;;;;;;4999036;28;20520;-85
2022/06/11 13:02:22;;;;;;;3.30;2.13;;;25.30;82.30;;;;;;5013212;28;20065;-86
2022/06/11 13:05:20;;;;;;;1.92;1.73;;;25.70;81.40;;;;;;5014918;28;20057;-85
2022/06/11 13:08:03;;;;;;;2.42;1.90;;;26.10;80.50;;;;;;4999179;28;20046;-86
2022/06/11 13:10:39;;;;;;;2.10;1.63;;;26.40;77.90;;;;;;5015031;28;20056;-86
2022/06/11 13:13:38;;;;;;;1.95;1.80;;;26.70;77.50;;;;;;4998742;28;20053;-85
2022/06/11 13:16:16;;;;;;;3.13;1.70;;;27.00;77.20;;;;;;4997245;28;20034;-85
2022/06/11 13:19:06;;;;;;;3.33;1.70;;;27.00;73.70;;;;;;4999662;28;20104;-86
2022/06/11 13:21:45;;;;;;;2.15;1.98;;;27.00;71.20;;;;;;4982906;28;20433;-86
2022/06/11 13:24:45;;;;;;;2.50;1.70;;;27.10;71.80;;;;;;5010053;28;20433;-85
2022/06/11 13:27:50;;;;;;;2.83;1.67;;;27.20;74.50;;;;;;4991060;28;20501;-85
2022/06/11 13:30:37;;;;;;;3.55;2.20;;;27.40;72.20;;;;;;4982631;28;20049;-85
2022/06/11 13:33:29;;;;;;;2.20;2.00;;;27.60;72.30;;;;;;5016716;28;20073;-85
2022/06/11 13:36:20;;;;;;;4.03;1.80;;;27.80;72.70;;;;;;4993568;28;20571;-86